sensor_id;sensor_type;location;lat;lon;timestamp;P1;durP1;ratioP1;P2;durP2;ratioP2
78402;SDS011;67687;43.508;1.504;2023-06-04T00:02:18;5.97;;;3.90;;
78402;SDS011;67687;43.508;1.504;2023-06-04T00:04:44;7.38;;;4.60;;
78402;SDS011;67687;43.508;1.504;2023-06-04T00:07:11;8.15;;;4.15;;
78402;SDS011;67687;43.508;1.504;2023-06-04T00:09:38;8.25;;;4.38;;
78402;SDS011;67687;43.508;1.504;2023-06-04T00:12:05;6.78;;;4.10;;
78402;SDS011;67687;43.508;1.504;2023-06-04T00:14:33;6.43;;;4.37;;
78402;SDS011;67687;43.508;1.504;2023-06-04T00:17:00;7.70;;;4.20;;
78402;SDS011;67687;43.508;1.504;2023-06-04T00:19:27;8.02;;;4.88;;
78402;SDS011;67687;43.508;1.504;2023-06-04T00:21:54;7.80;;;4.63;;
78402;SDS011;67687;43.508;1.504;2023-06-04T00:24:21;7.60;;;4.80;;
78402;SDS011;67687;43.508;1.504;2023-06-04T00:26:47;8.03;;;4.90;;
78402;SDS011;67687;43.508;1.504;2023-06-04T00:29:14;9.43;;;4.97;;
78402;SDS011;67687;43.508;1.504;2023-06-04T00:31:42;7.40;;;4.97;;
78402;SDS011;67687;43.508;1.504;2023-06-04T00:34:09;7.03;;;4.60;;
78402;SDS011;67687;43.508;1.504;2023-06-04T00:36:36;8.00;;;4.75;;
78402;SDS011;67687;43.508;1.504;2023-06-04T00:39:03;6.37;;;4.60;;
78402;SDS011;67687;43.508;1.504;2023-06-04T00:41:29;7.95;;;4.60;;
78402;SDS011;67687;43.508;1.504;2023-06-04T00:43:56;9.20;;;5.22;;
78402;SDS011;67687;43.508;1.504;2023-06-04T00:46:26;9.27;;;5.00;;
78402;SDS011;67687;43.508;1.504;2023-06-04T00:48:55;8.00;;;4.85;;
78402;SDS011;67687;43.508;1.504;2023-06-04T00:51:21;7.50;;;5.10;;
78402;SDS011;67687;43.508;1.504;2023-06-04T00:53:49;8.10;;;4.40;;
78402;SDS011;67687;43.508;1.504;2023-06-04T00:56:16;6.57;;;5.05;;
78402;SDS011;67687;43.508;1.504;2023-06-04T00:58:43;7.40;;;5.40;;
78402;SDS011;67687;43.508;1.504;2023-06-04T01:01:12;7.78;;;4.78;;
78402;SDS011;67687;43.508;1.504;2023-06-04T01:03:44;8.47;;;4.83;;
78402;SDS011;67687;43.508;1.504;2023-06-04T01:06:15;7.03;;;4.75;;
78402;SDS011;67687;43.508;1.504;2023-06-04T01:08:48;8.88;;;5.25;;
78402;SDS011;67687;43.508;1.504;2023-06-04T01:11:16;7.38;;;4.85;;
78402;SDS011;67687;43.508;1.504;2023-06-04T01:13:43;7.95;;;5.00;;
78402;SDS011;67687;43.508;1.504;2023-06-04T01:16:09;8.87;;;5.20;;
78402;SDS011;67687;43.508;1.504;2023-06-04T01:18:37;10.18;;;5.20;;
78402;SDS011;67687;43.508;1.504;2023-06-04T01:21:06;7.43;;;5.00;;
78402;SDS011;67687;43.508;1.504;2023-06-04T01:23:39;7.80;;;5.15;;
78402;SDS011;67687;43.508;1.504;2023-06-04T01:26:08;8.95;;;5.07;;
78402;SDS011;67687;43.508;1.504;2023-06-04T01:28:35;8.30;;;5.13;;
78402;SDS011;67687;43.508;1.504;2023-06-04T01:31:02;8.40;;;5.45;;
78402;SDS011;67687;43.508;1.504;2023-06-04T01:33:32;7.13;;;4.50;;
78402;SDS011;67687;43.508;1.504;2023-06-04T01:35:59;8.38;;;5.43;;
78402;SDS011;67687;43.508;1.504;2023-06-04T01:38:27;7.90;;;5.40;;
78402;SDS011;67687;43.508;1.504;2023-06-04T01:40:55;9.93;;;5.03;;
78402;SDS011;67687;43.508;1.504;2023-06-04T01:43:26;7.63;;;5.18;;
78402;SDS011;67687;43.508;1.504;2023-06-04T01:45:53;9.40;;;5.90;;
78402;SDS011;67687;43.508;1.504;2023-06-04T01:48:21;8.50;;;5.57;;
78402;SDS011;67687;43.508;1.504;2023-06-04T01:50:48;8.48;;;5.43;;
78402;SDS011;67687;43.508;1.504;2023-06-04T01:53:15;8.10;;;5.50;;
78402;SDS011;67687;43.508;1.504;2023-06-04T01:55:42;9.50;;;5.88;;
78402;SDS011;67687;43.508;1.504;2023-06-04T01:58:10;9.93;;;5.68;;
78402;SDS011;67687;43.508;1.504;2023-06-04T02:00:37;10.70;;;5.72;;
78402;SDS011;67687;43.508;1.504;2023-06-04T02:03:04;7.47;;;5.20;;
78402;SDS011;67687;43.508;1.504;2023-06-04T02:05:31;8.87;;;5.33;;
78402;SDS011;67687;43.508;1.504;2023-06-04T02:07:57;8.88;;;5.32;;
78402;SDS011;67687;43.508;1.504;2023-06-04T02:10:27;9.05;;;5.45;;
78402;SDS011;67687;43.508;1.504;2023-06-04T02:12:54;9.65;;;5.28;;
78402;SDS011;67687;43.508;1.504;2023-06-04T02:15:23;7.20;;;4.72;;
78402;SDS011;67687;43.508;1.504;2023-06-04T02:17:50;9.53;;;5.10;;
78402;SDS011;67687;43.508;1.504;2023-06-04T02:20:20;9.48;;;5.45;;
78402;SDS011;67687;43.508;1.504;2023-06-04T02:22:47;8.85;;;5.45;;
78402;SDS011;67687;43.508;1.504;2023-06-04T02:25:13;9.52;;;5.90;;
78402;SDS011;67687;43.508;1.504;2023-06-04T02:27:40;7.95;;;5.20;;
78402;SDS011;67687;43.508;1.504;2023-06-04T02:30:07;8.70;;;5.43;;
78402;SDS011;67687;43.508;1.504;2023-06-04T02:32:36;10.07;;;5.38;;
78402;SDS011;67687;43.508;1.504;2023-06-04T02:35:04;9.38;;;5.53;;
78402;SDS011;67687;43.508;1.504;2023-06-04T02:37:32;10.48;;;5.80;;
78402;SDS011;67687;43.508;1.504;2023-06-04T02:39:59;8.48;;;5.60;;
78402;SDS011;67687;43.508;1.504;2023-06-04T02:42:25;9.00;;;5.60;;
78402;SDS011;67687;43.508;1.504;2023-06-04T02:44:52;10.32;;;5.90;;
78402;SDS011;67687;43.508;1.504;2023-06-04T02:47:19;9.93;;;6.25;;
78402;SDS011;67687;43.508;1.504;2023-06-04T02:49:47;9.55;;;5.70;;
78402;SDS011;67687;43.508;1.504;2023-06-04T02:52:13;8.77;;;5.97;;
78402;SDS011;67687;43.508;1.504;2023-06-04T02:54:40;9.43;;;6.10;;
78402;SDS011;67687;43.508;1.504;2023-06-04T02:57:07;7.50;;;5.38;;
78402;SDS011;67687;43.508;1.504;2023-06-04T02:59:34;8.43;;;5.88;;
78402;SDS011;67687;43.508;1.504;2023-06-04T03:02:01;8.25;;;5.18;;
78402;SDS011;67687;43.508;1.504;2023-06-04T03:04:28;8.52;;;5.35;;
78402;SDS011;67687;43.508;1.504;2023-06-04T03:07:00;9.60;;;5.70;;
78402;SDS011;67687;43.508;1.504;2023-06-04T03:09:27;7.80;;;5.80;;
78402;SDS011;67687;43.508;1.504;2023-06-04T03:11:56;9.50;;;5.80;;
78402;SDS011;67687;43.508;1.504;2023-06-04T03:14:23;9.82;;;5.80;;
78402;SDS011;67687;43.508;1.504;2023-06-04T03:16:58;8.55;;;5.88;;
78402;SDS011;67687;43.508;1.504;2023-06-04T03:19:32;8.07;;;5.37;;
78402;SDS011;67687;43.508;1.504;2023-06-04T03:22:01;8.68;;;5.63;;
78402;SDS011;67687;43.508;1.504;2023-06-04T03:24:32;10.85;;;6.10;;
78402;SDS011;67687;43.508;1.504;2023-06-04T03:27:00;9.73;;;6.18;;
78402;SDS011;67687;43.508;1.504;2023-06-04T03:29:27;10.00;;;6.28;;
78402;SDS011;67687;43.508;1.504;2023-06-04T03:31:53;9.20;;;5.97;;
78402;SDS011;67687;43.508;1.504;2023-06-04T03:34:20;8.63;;;5.88;;
78402;SDS011;67687;43.508;1.504;2023-06-04T03:36:50;10.07;;;6.40;;
78402;SDS011;67687;43.508;1.504;2023-06-04T03:39:18;9.80;;;5.93;;
78402;SDS011;67687;43.508;1.504;2023-06-04T03:41:44;10.02;;;6.18;;
78402;SDS011;67687;43.508;1.504;2023-06-04T03:44:12;10.63;;;6.60;;
78402;SDS011;67687;43.508;1.504;2023-06-04T03:46:39;9.60;;;6.30;;
78402;SDS011;67687;43.508;1.504;2023-06-04T03:49:06;10.77;;;6.30;;
78402;SDS011;67687;43.508;1.504;2023-06-04T03:51:32;10.35;;;6.28;;
78402;SDS011;67687;43.508;1.504;2023-06-04T03:53:59;11.77;;;6.30;;
78402;SDS011;67687;43.508;1.504;2023-06-04T03:56:28;9.87;;;6.30;;
78402;SDS011;67687;43.508;1.504;2023-06-04T03:58:55;9.15;;;6.50;;
78402;SDS011;67687;43.508;1.504;2023-06-04T04:01:22;10.00;;;6.68;;
78402;SDS011;67687;43.508;1.504;2023-06-04T04:03:49;9.02;;;6.20;;
78402;SDS011;67687;43.508;1.504;2023-06-04T04:06:16;8.70;;;6.13;;
78402;SDS011;67687;43.508;1.504;2023-06-04T04:08:43;10.10;;;6.40;;
78402;SDS011;67687;43.508;1.504;2023-06-04T04:11:10;10.30;;;6.97;;
78402;SDS011;67687;43.508;1.504;2023-06-04T04:13:38;11.05;;;6.45;;
78402;SDS011;67687;43.508;1.504;2023-06-04T04:16:05;10.20;;;6.50;;
78402;SDS011;67687;43.508;1.504;2023-06-04T04:18:32;10.05;;;6.55;;
78402;SDS011;67687;43.508;1.504;2023-06-04T04:20:59;9.00;;;6.23;;
78402;SDS011;67687;43.508;1.504;2023-06-04T04:23:26;9.55;;;6.70;;
78402;SDS011;67687;43.508;1.504;2023-06-04T04:25:54;10.35;;;6.90;;
78402;SDS011;67687;43.508;1.504;2023-06-04T04:28:23;10.60;;;6.80;;
78402;SDS011;67687;43.508;1.504;2023-06-04T04:30:55;11.05;;;7.15;;
78402;SDS011;67687;43.508;1.504;2023-06-04T04:33:22;8.80;;;6.33;;
78402;SDS011;67687;43.508;1.504;2023-06-04T04:35:50;11.57;;;6.57;;
78402;SDS011;67687;43.508;1.504;2023-06-04T04:38:17;10.90;;;7.15;;
78402;SDS011;67687;43.508;1.504;2023-06-04T04:40:44;9.05;;;6.30;;
78402;SDS011;67687;43.508;1.504;2023-06-04T04:43:12;9.90;;;6.63;;
78402;SDS011;67687;43.508;1.504;2023-06-04T04:45:40;8.30;;;5.93;;
78402;SDS011;67687;43.508;1.504;2023-06-04T04:48:08;11.50;;;6.63;;
78402;SDS011;67687;43.508;1.504;2023-06-04T04:50:35;11.45;;;6.50;;
78402;SDS011;67687;43.508;1.504;2023-06-04T04:53:01;10.25;;;6.82;;
78402;SDS011;67687;43.508;1.504;2023-06-04T04:55:28;8.93;;;6.85;;
78402;SDS011;67687;43.508;1.504;2023-06-04T04:57:55;11.83;;;6.30;;
78402;SDS011;67687;43.508;1.504;2023-06-04T05:00:22;8.32;;;5.80;;
78402;SDS011;67687;43.508;1.504;2023-06-04T05:02:49;9.55;;;5.97;;
78402;SDS011;67687;43.508;1.504;2023-06-04T05:05:17;9.77;;;6.15;;
78402;SDS011;67687;43.508;1.504;2023-06-04T05:07:44;8.52;;;6.00;;
78402;SDS011;67687;43.508;1.504;2023-06-04T05:10:10;8.20;;;5.73;;
78402;SDS011;67687;43.508;1.504;2023-06-04T05:12:37;10.25;;;5.95;;
78402;SDS011;67687;43.508;1.504;2023-06-04T05:15:05;9.90;;;6.13;;
78402;SDS011;67687;43.508;1.504;2023-06-04T05:17:33;8.52;;;5.97;;
78402;SDS011;67687;43.508;1.504;2023-06-04T05:20:00;8.98;;;6.18;;
78402;SDS011;67687;43.508;1.504;2023-06-04T05:22:30;11.67;;;6.23;;
78402;SDS011;67687;43.508;1.504;2023-06-04T05:24:57;12.38;;;6.40;;
78402;SDS011;67687;43.508;1.504;2023-06-04T05:27:24;10.63;;;6.30;;
78402;SDS011;67687;43.508;1.504;2023-06-04T05:29:51;11.10;;;6.68;;
78402;SDS011;67687;43.508;1.504;2023-06-04T05:32:18;11.57;;;6.55;;
78402;SDS011;67687;43.508;1.504;2023-06-04T05:34:48;10.47;;;6.53;;
78402;SDS011;67687;43.508;1.504;2023-06-04T05:37:14;12.20;;;6.97;;
78402;SDS011;67687;43.508;1.504;2023-06-04T05:39:43;9.52;;;6.50;;
78402;SDS011;67687;43.508;1.504;2023-06-04T05:42:10;10.30;;;7.03;;
78402;SDS011;67687;43.508;1.504;2023-06-04T05:44:37;12.18;;;6.70;;
78402;SDS011;67687;43.508;1.504;2023-06-04T05:47:04;9.93;;;6.70;;
78402;SDS011;67687;43.508;1.504;2023-06-04T05:49:31;11.32;;;7.55;;
78402;SDS011;67687;43.508;1.504;2023-06-04T05:52:00;13.35;;;7.38;;
78402;SDS011;67687;43.508;1.504;2023-06-04T05:54:26;9.70;;;6.63;;
78402;SDS011;67687;43.508;1.504;2023-06-04T05:56:56;11.38;;;7.43;;
78402;SDS011;67687;43.508;1.504;2023-06-04T05:59:23;10.27;;;6.90;;
78402;SDS011;67687;43.508;1.504;2023-06-04T06:01:49;10.48;;;7.60;;
78402;SDS011;67687;43.508;1.504;2023-06-04T06:04:16;9.80;;;6.80;;
78402;SDS011;67687;43.508;1.504;2023-06-04T06:06:43;9.75;;;7.43;;
78402;SDS011;67687;43.508;1.504;2023-06-04T06:09:12;10.90;;;7.70;;
78402;SDS011;67687;43.508;1.504;2023-06-04T06:11:39;10.43;;;7.10;;
78402;SDS011;67687;43.508;1.504;2023-06-04T06:14:07;9.15;;;6.00;;
78402;SDS011;67687;43.508;1.504;2023-06-04T06:16:33;10.57;;;6.38;;
78402;SDS011;67687;43.508;1.504;2023-06-04T06:19:00;10.23;;;6.30;;
78402;SDS011;67687;43.508;1.504;2023-06-04T06:21:27;8.38;;;6.50;;
78402;SDS011;67687;43.508;1.504;2023-06-04T06:23:54;9.53;;;6.20;;
78402;SDS011;67687;43.508;1.504;2023-06-04T06:26:21;9.95;;;6.20;;
78402;SDS011;67687;43.508;1.504;2023-06-04T06:28:49;9.63;;;6.50;;
78402;SDS011;67687;43.508;1.504;2023-06-04T06:31:17;9.18;;;6.25;;
78402;SDS011;67687;43.508;1.504;2023-06-04T06:33:44;8.32;;;6.07;;
78402;SDS011;67687;43.508;1.504;2023-06-04T06:36:11;8.43;;;6.20;;
78402;SDS011;67687;43.508;1.504;2023-06-04T06:38:38;9.05;;;6.05;;
78402;SDS011;67687;43.508;1.504;2023-06-04T06:41:05;9.10;;;6.45;;
78402;SDS011;67687;43.508;1.504;2023-06-04T06:43:32;10.27;;;6.50;;
78402;SDS011;67687;43.508;1.504;2023-06-04T06:45:59;7.60;;;5.43;;
78402;SDS011;67687;43.508;1.504;2023-06-04T06:48:27;10.37;;;6.03;;
78402;SDS011;67687;43.508;1.504;2023-06-04T06:50:54;10.70;;;6.60;;
78402;SDS011;67687;43.508;1.504;2023-06-04T06:53:21;8.52;;;5.90;;
78402;SDS011;67687;43.508;1.504;2023-06-04T06:55:48;9.18;;;6.30;;
78402;SDS011;67687;43.508;1.504;2023-06-04T06:58:14;7.90;;;4.90;;
78402;SDS011;67687;43.508;1.504;2023-06-04T07:00:41;8.20;;;5.50;;
78402;SDS011;67687;43.508;1.504;2023-06-04T07:03:08;8.45;;;5.18;;
78402;SDS011;67687;43.508;1.504;2023-06-04T07:05:36;6.80;;;4.70;;
78402;SDS011;67687;43.508;1.504;2023-06-04T07:08:02;7.80;;;4.80;;
78402;SDS011;67687;43.508;1.504;2023-06-04T07:10:29;6.95;;;4.90;;
78402;SDS011;67687;43.508;1.504;2023-06-04T07:12:56;6.53;;;3.77;;
78402;SDS011;67687;43.508;1.504;2023-06-04T07:15:23;7.97;;;4.88;;
78402;SDS011;67687;43.508;1.504;2023-06-04T07:17:49;5.40;;;3.60;;
78402;SDS011;67687;43.508;1.504;2023-06-04T07:20:16;5.82;;;3.72;;
78402;SDS011;67687;43.508;1.504;2023-06-04T07:22:44;8.45;;;4.90;;
78402;SDS011;67687;43.508;1.504;2023-06-04T07:25:11;7.57;;;4.17;;
78402;SDS011;67687;43.508;1.504;2023-06-04T07:27:38;7.32;;;4.50;;
78402;SDS011;67687;43.508;1.504;2023-06-04T07:30:06;6.60;;;3.88;;
78402;SDS011;67687;43.508;1.504;2023-06-04T07:32:33;6.55;;;4.68;;
78402;SDS011;67687;43.508;1.504;2023-06-04T07:35:01;5.95;;;4.30;;
78402;SDS011;67687;43.508;1.504;2023-06-04T07:37:28;6.77;;;4.47;;
78402;SDS011;67687;43.508;1.504;2023-06-04T07:39:56;6.38;;;4.25;;
78402;SDS011;67687;43.508;1.504;2023-06-04T07:42:23;6.72;;;4.00;;
78402;SDS011;67687;43.508;1.504;2023-06-04T07:44:50;5.72;;;3.55;;
78402;SDS011;67687;43.508;1.504;2023-06-04T07:47:16;6.05;;;3.80;;
78402;SDS011;67687;43.508;1.504;2023-06-04T07:49:43;6.43;;;4.20;;
78402;SDS011;67687;43.508;1.504;2023-06-04T07:52:10;6.20;;;4.53;;
78402;SDS011;67687;43.508;1.504;2023-06-04T07:54:36;9.55;;;3.83;;
78402;SDS011;67687;43.508;1.504;2023-06-04T07:57:07;6.70;;;4.30;;
78402;SDS011;67687;43.508;1.504;2023-06-04T07:59:35;5.80;;;3.72;;
78402;SDS011;67687;43.508;1.504;2023-06-04T08:02:02;6.27;;;4.00;;
78402;SDS011;67687;43.508;1.504;2023-06-04T08:04:29;7.18;;;4.57;;
78402;SDS011;67687;43.508;1.504;2023-06-04T08:06:56;6.75;;;4.32;;
78402;SDS011;67687;43.508;1.504;2023-06-04T08:09:23;6.30;;;4.47;;
78402;SDS011;67687;43.508;1.504;2023-06-04T08:11:49;6.25;;;4.10;;
78402;SDS011;67687;43.508;1.504;2023-06-04T08:14:18;6.60;;;4.70;;
78402;SDS011;67687;43.508;1.504;2023-06-04T08:16:46;6.60;;;4.32;;
78402;SDS011;67687;43.508;1.504;2023-06-04T08:19:14;5.28;;;4.00;;
78402;SDS011;67687;43.508;1.504;2023-06-04T08:21:41;5.82;;;4.00;;
78402;SDS011;67687;43.508;1.504;2023-06-04T08:24:10;6.55;;;4.65;;
78402;SDS011;67687;43.508;1.504;2023-06-04T08:26:36;5.27;;;4.30;;
78402;SDS011;67687;43.508;1.504;2023-06-04T08:29:03;6.13;;;4.40;;
78402;SDS011;67687;43.508;1.504;2023-06-04T08:31:31;5.72;;;4.60;;
78402;SDS011;67687;43.508;1.504;2023-06-04T08:33:58;6.68;;;3.05;;
78402;SDS011;67687;43.508;1.504;2023-06-04T08:36:26;6.82;;;4.47;;
78402;SDS011;67687;43.508;1.504;2023-06-04T08:38:53;6.23;;;4.70;;
78402;SDS011;67687;43.508;1.504;2023-06-04T08:41:22;6.47;;;4.30;;
78402;SDS011;67687;43.508;1.504;2023-06-04T08:43:52;6.57;;;4.43;;
78402;SDS011;67687;43.508;1.504;2023-06-04T08:46:22;6.10;;;4.28;;
78402;SDS011;67687;43.508;1.504;2023-06-04T08:48:51;7.97;;;4.60;;
78402;SDS011;67687;43.508;1.504;2023-06-04T08:51:18;7.30;;;4.30;;
78402;SDS011;67687;43.508;1.504;2023-06-04T08:53:45;6.28;;;4.30;;
78402;SDS011;67687;43.508;1.504;2023-06-04T08:56:15;5.93;;;4.22;;
78402;SDS011;67687;43.508;1.504;2023-06-04T08:58:42;6.53;;;4.10;;
78402;SDS011;67687;43.508;1.504;2023-06-04T09:01:09;5.60;;;4.28;;
78402;SDS011;67687;43.508;1.504;2023-06-04T09:03:37;6.30;;;4.10;;
78402;SDS011;67687;43.508;1.504;2023-06-04T09:06:05;5.47;;;3.53;;
78402;SDS011;67687;43.508;1.504;2023-06-04T09:08:34;5.38;;;4.05;;
78402;SDS011;67687;43.508;1.504;2023-06-04T09:11:02;6.00;;;4.00;;
78402;SDS011;67687;43.508;1.504;2023-06-04T09:13:32;6.63;;;4.20;;
78402;SDS011;67687;43.508;1.504;2023-06-04T09:15:59;7.13;;;4.40;;
78402;SDS011;67687;43.508;1.504;2023-06-04T09:18:26;5.28;;;3.90;;
78402;SDS011;67687;43.508;1.504;2023-06-04T09:21:00;5.13;;;3.85;;
78402;SDS011;67687;43.508;1.504;2023-06-04T09:23:29;6.95;;;4.30;;
78402;SDS011;67687;43.508;1.504;2023-06-04T09:25:57;7.15;;;4.20;;
78402;SDS011;67687;43.508;1.504;2023-06-04T09:28:32;7.10;;;4.40;;
78402;SDS011;67687;43.508;1.504;2023-06-04T09:30:59;6.15;;;3.65;;
78402;SDS011;67687;43.508;1.504;2023-06-04T09:33:27;6.15;;;4.00;;
78402;SDS011;67687;43.508;1.504;2023-06-04T09:35:54;6.00;;;4.45;;
78402;SDS011;67687;43.508;1.504;2023-06-04T09:38:21;6.63;;;4.43;;
78402;SDS011;67687;43.508;1.504;2023-06-04T09:40:50;5.93;;;3.93;;
78402;SDS011;67687;43.508;1.504;2023-06-04T09:43:22;9.27;;;4.57;;
78402;SDS011;67687;43.508;1.504;2023-06-04T09:45:49;7.00;;;4.30;;
78402;SDS011;67687;43.508;1.504;2023-06-04T09:48:20;5.05;;;3.28;;
78402;SDS011;67687;43.508;1.504;2023-06-04T09:50:47;5.70;;;3.85;;
78402;SDS011;67687;43.508;1.504;2023-06-04T09:53:14;6.93;;;3.97;;
78402;SDS011;67687;43.508;1.504;2023-06-04T09:55:41;5.70;;;4.30;;
78402;SDS011;67687;43.508;1.504;2023-06-04T09:58:10;5.18;;;3.13;;
78402;SDS011;67687;43.508;1.504;2023-06-04T10:00:38;7.18;;;3.25;;
78402;SDS011;67687;43.508;1.504;2023-06-04T10:03:05;6.68;;;3.67;;
78402;SDS011;67687;43.508;1.504;2023-06-04T10:05:32;6.73;;;3.80;;
78402;SDS011;67687;43.508;1.504;2023-06-04T10:07:59;5.90;;;3.85;;
78402;SDS011;67687;43.508;1.504;2023-06-04T10:10:30;6.45;;;4.10;;
78402;SDS011;67687;43.508;1.504;2023-06-04T10:13:01;5.60;;;4.10;;
78402;SDS011;67687;43.508;1.504;2023-06-04T10:15:33;5.30;;;3.65;;
78402;SDS011;67687;43.508;1.504;2023-06-04T10:18:02;5.33;;;3.63;;
78402;SDS011;67687;43.508;1.504;2023-06-04T10:20:30;5.90;;;3.80;;
78402;SDS011;67687;43.508;1.504;2023-06-04T10:22:57;5.43;;;3.47;;
78402;SDS011;67687;43.508;1.504;2023-06-04T10:25:25;6.03;;;3.65;;
78402;SDS011;67687;43.508;1.504;2023-06-04T10:27:52;5.80;;;3.90;;
78402;SDS011;67687;43.508;1.504;2023-06-04T10:30:19;5.17;;;3.67;;
78402;SDS011;67687;43.508;1.504;2023-06-04T10:32:47;5.28;;;3.42;;
78402;SDS011;67687;43.508;1.504;2023-06-04T10:35:14;4.93;;;3.13;;
78402;SDS011;67687;43.508;1.504;2023-06-04T10:37:41;5.75;;;3.60;;
78402;SDS011;67687;43.508;1.504;2023-06-04T10:40:08;6.15;;;3.70;;
78402;SDS011;67687;43.508;1.504;2023-06-04T10:42:38;7.20;;;3.90;;
78402;SDS011;67687;43.508;1.504;2023-06-04T10:45:07;5.60;;;3.40;;
78402;SDS011;67687;43.508;1.504;2023-06-04T10:47:36;5.38;;;3.13;;
78402;SDS011;67687;43.508;1.504;2023-06-04T10:50:10;8.50;;;3.55;;
78402;SDS011;67687;43.508;1.504;2023-06-04T10:52:38;5.75;;;3.17;;
78402;SDS011;67687;43.508;1.504;2023-06-04T10:55:06;5.57;;;3.43;;
78402;SDS011;67687;43.508;1.504;2023-06-04T10:57:34;4.35;;;3.05;;
78402;SDS011;67687;43.508;1.504;2023-06-04T11:00:01;5.20;;;3.10;;
78402;SDS011;67687;43.508;1.504;2023-06-04T11:02:31;4.70;;;3.05;;
78402;SDS011;67687;43.508;1.504;2023-06-04T11:04:58;5.03;;;3.10;;
78402;SDS011;67687;43.508;1.504;2023-06-04T11:07:39;4.33;;;3.00;;
78402;SDS011;67687;43.508;1.504;2023-06-04T11:10:07;4.35;;;2.75;;
78402;SDS011;67687;43.508;1.504;2023-06-04T11:12:41;5.15;;;2.80;;
78402;SDS011;67687;43.508;1.504;2023-06-04T11:15:08;5.13;;;2.90;;
78402;SDS011;67687;43.508;1.504;2023-06-04T11:17:36;4.25;;;2.60;;
78402;SDS011;67687;43.508;1.504;2023-06-04T11:20:03;5.53;;;2.80;;
78402;SDS011;67687;43.508;1.504;2023-06-04T11:22:33;4.70;;;2.83;;
78402;SDS011;67687;43.508;1.504;2023-06-04T11:25:00;6.05;;;2.80;;
78402;SDS011;67687;43.508;1.504;2023-06-04T11:27:27;5.18;;;2.92;;
78402;SDS011;67687;43.508;1.504;2023-06-04T11:29:54;4.32;;;2.67;;
78402;SDS011;67687;43.508;1.504;2023-06-04T11:32:21;4.10;;;2.53;;
78402;SDS011;67687;43.508;1.504;2023-06-04T11:34:48;4.60;;;2.58;;
78402;SDS011;67687;43.508;1.504;2023-06-04T11:37:15;4.20;;;2.40;;
78402;SDS011;67687;43.508;1.504;2023-06-04T11:39:44;5.35;;;2.95;;
78402;SDS011;67687;43.508;1.504;2023-06-04T11:42:10;4.00;;;2.80;;
78402;SDS011;67687;43.508;1.504;2023-06-04T11:44:37;4.50;;;2.80;;
78402;SDS011;67687;43.508;1.504;2023-06-04T11:47:10;4.72;;;2.80;;
78402;SDS011;67687;43.508;1.504;2023-06-04T11:49:38;4.35;;;2.50;;
78402;SDS011;67687;43.508;1.504;2023-06-04T11:52:05;4.85;;;3.08;;
78402;SDS011;67687;43.508;1.504;2023-06-04T11:54:32;4.95;;;3.15;;
78402;SDS011;67687;43.508;1.504;2023-06-04T11:57:04;6.03;;;2.70;;
78402;SDS011;67687;43.508;1.504;2023-06-04T11:59:31;4.45;;;2.65;;
78402;SDS011;67687;43.508;1.504;2023-06-04T12:01:58;4.88;;;2.85;;
78402;SDS011;67687;43.508;1.504;2023-06-04T12:04:29;4.45;;;2.70;;
78402;SDS011;67687;43.508;1.504;2023-06-04T12:06:56;4.35;;;2.60;;
78402;SDS011;67687;43.508;1.504;2023-06-04T12:09:26;4.00;;;2.50;;
78402;SDS011;67687;43.508;1.504;2023-06-04T12:11:57;3.88;;;2.20;;
78402;SDS011;67687;43.508;1.504;2023-06-04T12:14:25;4.45;;;2.50;;
78402;SDS011;67687;43.508;1.504;2023-06-04T12:16:55;4.70;;;2.40;;
78402;SDS011;67687;43.508;1.504;2023-06-04T12:19:22;5.28;;;2.60;;
78402;SDS011;67687;43.508;1.504;2023-06-04T12:21:58;4.33;;;2.80;;
78402;SDS011;67687;43.508;1.504;2023-06-04T12:24:27;4.72;;;2.45;;
78402;SDS011;67687;43.508;1.504;2023-06-04T12:27:02;4.20;;;2.53;;
78402;SDS011;67687;43.508;1.504;2023-06-04T12:29:31;4.95;;;2.40;;
78402;SDS011;67687;43.508;1.504;2023-06-04T12:32:02;3.90;;;2.55;;
78402;SDS011;67687;43.508;1.504;2023-06-04T12:34:30;4.07;;;2.73;;
78402;SDS011;67687;43.508;1.504;2023-06-04T12:36:57;6.60;;;2.50;;
78402;SDS011;67687;43.508;1.504;2023-06-04T12:39:24;5.57;;;2.55;;
78402;SDS011;67687;43.508;1.504;2023-06-04T12:41:50;4.40;;;2.88;;
78402;SDS011;67687;43.508;1.504;2023-06-04T12:44:17;4.57;;;2.55;;
78402;SDS011;67687;43.508;1.504;2023-06-04T12:46:46;5.33;;;2.90;;
78402;SDS011;67687;43.508;1.504;2023-06-04T12:49:13;4.38;;;2.42;;
78402;SDS011;67687;43.508;1.504;2023-06-04T12:51:40;3.75;;;2.60;;
78402;SDS011;67687;43.508;1.504;2023-06-04T12:54:06;4.40;;;2.70;;
78402;SDS011;67687;43.508;1.504;2023-06-04T12:56:33;4.75;;;2.50;;
78402;SDS011;67687;43.508;1.504;2023-06-04T12:59:00;4.47;;;2.43;;
78402;SDS011;67687;43.508;1.504;2023-06-04T13:01:27;4.35;;;2.35;;
78402;SDS011;67687;43.508;1.504;2023-06-04T13:03:55;4.32;;;2.40;;
78402;SDS011;67687;43.508;1.504;2023-06-04T13:06:22;5.13;;;2.70;;
78402;SDS011;67687;43.508;1.504;2023-06-04T13:08:48;3.92;;;2.40;;
78402;SDS011;67687;43.508;1.504;2023-06-04T13:11:15;3.97;;;2.50;;
78402;SDS011;67687;43.508;1.504;2023-06-04T13:13:42;6.55;;;2.97;;
78402;SDS011;67687;43.508;1.504;2023-06-04T13:16:09;7.13;;;2.60;;
78402;SDS011;67687;43.508;1.504;2023-06-04T13:18:36;3.88;;;2.33;;
78402;SDS011;67687;43.508;1.504;2023-06-04T13:21:04;4.22;;;2.40;;
78402;SDS011;67687;43.508;1.504;2023-06-04T13:23:31;4.37;;;2.70;;
78402;SDS011;67687;43.508;1.504;2023-06-04T13:25:58;4.32;;;2.70;;
78402;SDS011;67687;43.508;1.504;2023-06-04T13:28:25;4.63;;;2.70;;
78402;SDS011;67687;43.508;1.504;2023-06-04T13:30:53;4.78;;;2.90;;
78402;SDS011;67687;43.508;1.504;2023-06-04T13:33:19;4.28;;;2.40;;
78402;SDS011;67687;43.508;1.504;2023-06-04T13:35:46;4.00;;;2.70;;
78402;SDS011;67687;43.508;1.504;2023-06-04T13:38:14;4.80;;;2.55;;
78402;SDS011;67687;43.508;1.504;2023-06-04T13:40:41;3.58;;;2.35;;
78402;SDS011;67687;43.508;1.504;2023-06-04T13:43:08;4.93;;;3.10;;
78402;SDS011;67687;43.508;1.504;2023-06-04T13:45:35;6.53;;;2.63;;
78402;SDS011;67687;43.508;1.504;2023-06-04T13:48:02;3.77;;;2.33;;
78402;SDS011;67687;43.508;1.504;2023-06-04T13:50:32;4.25;;;2.40;;
78402;SDS011;67687;43.508;1.504;2023-06-04T13:52:59;5.65;;;2.42;;
78402;SDS011;67687;43.508;1.504;2023-06-04T13:55:27;4.38;;;2.53;;
78402;SDS011;67687;43.508;1.504;2023-06-04T13:57:55;4.40;;;2.58;;
78402;SDS011;67687;43.508;1.504;2023-06-04T14:00:22;4.67;;;2.60;;
78402;SDS011;67687;43.508;1.504;2023-06-04T14:02:49;3.53;;;2.60;;
78402;SDS011;67687;43.508;1.504;2023-06-04T14:05:16;4.15;;;2.60;;
78402;SDS011;67687;43.508;1.504;2023-06-04T14:07:43;4.72;;;2.47;;
78402;SDS011;67687;43.508;1.504;2023-06-04T14:10:10;3.55;;;2.38;;
78402;SDS011;67687;43.508;1.504;2023-06-04T14:12:38;4.47;;;2.60;;
78402;SDS011;67687;43.508;1.504;2023-06-04T14:15:06;4.75;;;2.65;;
78402;SDS011;67687;43.508;1.504;2023-06-04T14:17:33;4.32;;;2.70;;
78402;SDS011;67687;43.508;1.504;2023-06-04T14:20:00;3.60;;;2.50;;
78402;SDS011;67687;43.508;1.504;2023-06-04T14:22:32;5.07;;;2.58;;
78402;SDS011;67687;43.508;1.504;2023-06-04T14:24:59;4.40;;;2.80;;
78402;SDS011;67687;43.508;1.504;2023-06-04T14:27:26;4.50;;;2.83;;
78402;SDS011;67687;43.508;1.504;2023-06-04T14:29:54;4.60;;;2.70;;
78402;SDS011;67687;43.508;1.504;2023-06-04T14:32:21;4.13;;;2.40;;
78402;SDS011;67687;43.508;1.504;2023-06-04T14:34:48;4.75;;;2.90;;
78402;SDS011;67687;43.508;1.504;2023-06-04T14:37:15;4.97;;;2.23;;
78402;SDS011;67687;43.508;1.504;2023-06-04T14:39:42;3.53;;;2.20;;
78402;SDS011;67687;43.508;1.504;2023-06-04T14:42:08;3.63;;;2.42;;
78402;SDS011;67687;43.508;1.504;2023-06-04T14:44:35;4.30;;;2.28;;
78402;SDS011;67687;43.508;1.504;2023-06-04T14:47:04;3.22;;;2.15;;
78402;SDS011;67687;43.508;1.504;2023-06-04T14:49:31;5.10;;;2.80;;